createdAt,value
2018-11-25T00:00:31.129Z,38.70
2018-11-25T00:03:00.239Z,35.80
2018-11-25T00:05:28.992Z,34.90
2018-11-25T00:07:57.452Z,35.23
2018-11-25T00:10:26.078Z,38.48
2018-11-25T00:12:55.025Z,38.35
2018-11-25T00:15:23.478Z,38.10
2018-11-25T00:17:52.019Z,39.95
2018-11-25T00:20:20.929Z,37.50
2018-11-25T00:22:49.889Z,38.28
2018-11-25T00:25:18.499Z,37.78
2018-11-25T00:27:47.506Z,35.75
2018-11-25T00:30:17.001Z,39.73
2018-11-25T00:32:45.892Z,40.00
2018-11-25T00:35:15.328Z,36.42
2018-11-25T00:37:48.631Z,37.30
2018-11-25T00:40:15.157Z,41.25
2018-11-25T00:42:44.606Z,41.85
2018-11-25T00:45:17.536Z,40.40
2018-11-25T00:47:46.324Z,41.18
2018-11-25T00:50:15.058Z,36.05
2018-11-25T00:52:43.473Z,37.67
2018-11-25T00:57:52.714Z,36.88
2018-11-25T01:00:21.485Z,39.92
2018-11-25T01:02:50.577Z,39.08
2018-11-25T01:05:19.186Z,38.98
2018-11-25T01:07:47.745Z,39.45
2018-11-25T01:10:16.756Z,37.05
2018-11-25T01:12:45.512Z,40.15
2018-11-25T01:15:15.477Z,38.23
2018-11-25T01:17:43.879Z,40.85
2018-11-25T01:20:16.252Z,37.75
2018-11-25T01:22:44.920Z,40.10
2018-11-25T01:25:13.629Z,40.33
2018-11-25T01:27:41.958Z,39.10
2018-11-25T01:30:12.208Z,38.92
2018-11-25T01:32:40.631Z,39.15
2018-11-25T01:35:10.058Z,43.50
2018-11-25T01:37:39.463Z,41.28
2018-11-25T01:40:09.744Z,39.92
2018-11-25T01:42:38.256Z,41.50
2018-11-25T01:45:08.690Z,39.42
2018-11-25T01:47:37.264Z,40.98
2018-11-25T01:50:07.635Z,41.98
2018-11-25T01:52:36.181Z,39.73
2018-11-25T01:55:05.345Z,38.75
2018-11-25T01:57:34.267Z,38.60
2018-11-25T02:00:03.250Z,40.52
2018-11-25T02:02:32.142Z,41.75
2018-11-25T02:05:00.738Z,43.40
2018-11-25T02:07:29.900Z,44.73
2018-11-25T02:09:58.434Z,41.65
2018-11-25T02:12:27.150Z,45.78
2018-11-25T02:14:56.121Z,45.92
2018-11-25T02:17:24.687Z,42.33
2018-11-25T02:19:53.665Z,44.23
2018-11-25T02:22:23.022Z,42.08
2018-11-25T02:24:57.455Z,42.50
2018-11-25T02:27:29.207Z,44.85
2018-11-25T02:29:57.901Z,44.35
2018-11-25T02:32:26.549Z,44.55
2018-11-25T02:34:55.412Z,42.75
2018-11-25T02:37:25.708Z,43.13
2018-11-25T02:39:55.706Z,43.70
2018-11-25T02:42:25.975Z,43.58
2018-11-25T02:44:57.083Z,47.03
2018-11-25T02:47:26.070Z,43.98
2018-11-25T02:49:55.295Z,46.53
2018-11-25T02:52:31.948Z,46.05
2018-11-25T02:55:06.805Z,41.02
2018-11-25T02:57:36.583Z,40.95
2018-11-25T03:00:09.621Z,43.85
2018-11-25T03:02:44.140Z,48.23
2018-11-25T03:05:18.127Z,46.50
2018-11-25T03:07:53.435Z,44.90
2018-11-25T03:10:22.911Z,45.73
2018-11-25T03:12:52.750Z,46.18
2018-11-25T03:15:21.590Z,44.03
2018-11-25T03:17:50.073Z,44.27
2018-11-25T03:20:18.924Z,49.50
2018-11-25T03:22:47.578Z,47.20
2018-11-25T03:25:17.732Z,47.43
2018-11-25T03:27:46.431Z,48.68
2018-11-25T03:30:16.371Z,45.10
2018-11-25T03:32:46.180Z,44.93
2018-11-25T03:35:15.407Z,47.62
2018-11-25T03:37:44.407Z,45.17
2018-11-25T03:40:14.128Z,46.98
2018-11-25T03:42:43.063Z,46.73
2018-11-25T03:45:16.708Z,48.30
2018-11-25T03:47:45.618Z,47.67
2018-11-25T03:50:14.836Z,47.00
2018-11-25T03:52:43.828Z,45.48
2018-11-25T03:55:14.019Z,49.30
2018-11-25T03:57:42.342Z,47.95
2018-11-25T04:00:13.281Z,43.65
2018-11-25T04:02:41.654Z,46.33
2018-11-25T04:05:10.957Z,46.20
2018-11-25T04:07:39.501Z,44.95
2018-11-25T04:10:10.223Z,50.67
2018-11-25T04:12:38.719Z,47.62
2018-11-25T04:15:11.059Z,43.65
2018-11-25T04:17:39.667Z,46.37
2018-11-25T04:20:12.837Z,47.33
2018-11-25T04:22:41.226Z,43.05
2018-11-25T04:25:10.238Z,46.77
2018-11-25T04:27:38.765Z,44.88
2018-11-25T04:30:12.169Z,46.28
2018-11-25T04:32:40.426Z,44.25
2018-11-25T04:35:09.837Z,45.55
2018-11-25T04:37:38.341Z,44.27
2018-11-25T04:40:08.255Z,40.15
2018-11-25T04:42:36.597Z,45.33
2018-11-25T04:45:05.470Z,42.93
2018-11-25T04:47:33.908Z,42.25
2018-11-25T04:50:02.310Z,45.00
2018-11-25T04:52:30.836Z,43.05
2018-11-25T04:54:59.247Z,44.13
2018-11-25T04:57:27.643Z,43.63
2018-11-25T04:59:55.872Z,43.55
2018-11-25T05:02:24.222Z,43.85
2018-11-25T05:04:52.556Z,44.13
2018-11-25T05:07:20.867Z,45.30
2018-11-25T05:09:49.161Z,45.03
2018-11-25T05:12:17.489Z,44.93
2018-11-25T05:14:46.456Z,46.08
2018-11-25T05:17:14.952Z,43.73
2018-11-25T05:19:43.410Z,45.92
2018-11-25T05:22:11.992Z,45.95
2018-11-25T05:24:40.749Z,48.87
2018-11-25T05:27:09.339Z,44.83
2018-11-25T05:29:38.312Z,44.42
2018-11-25T05:32:06.744Z,46.60
2018-11-25T05:34:35.199Z,49.77
2018-11-25T05:37:03.602Z,44.15
2018-11-25T05:39:31.964Z,47.70
2018-11-25T05:42:00.642Z,47.88
2018-11-25T05:44:29.225Z,44.40
2018-11-25T05:46:58.086Z,46.73
2018-11-25T05:49:27.536Z,47.98
2018-11-25T05:51:56.332Z,47.70
2018-11-25T05:54:24.917Z,49.70
2018-11-25T05:56:53.185Z,50.70
2018-11-25T05:59:21.762Z,47.33
2018-11-25T06:01:50.007Z,48.95
2018-11-25T06:04:18.213Z,46.37
2018-11-25T06:06:46.582Z,44.70
2018-11-25T06:09:14.924Z,47.62
2018-11-25T06:11:43.454Z,50.55
2018-11-25T06:14:12.228Z,46.37
2018-11-25T06:16:40.519Z,48.68
2018-11-25T06:19:08.760Z,46.20
2018-11-25T06:21:37.201Z,45.88
2018-11-25T06:24:05.527Z,44.75
2018-11-25T06:26:33.911Z,44.77
2018-11-25T06:29:02.203Z,49.53
2018-11-25T06:31:30.515Z,45.35
2018-11-25T06:33:58.946Z,45.40
2018-11-25T06:36:27.651Z,49.23
2018-11-25T06:38:55.904Z,42.23
2018-11-25T06:41:24.387Z,47.13
2018-11-25T06:43:53.769Z,40.90
2018-11-25T06:46:22.327Z,45.63
2018-11-25T06:48:55.057Z,45.78
2018-11-25T06:51:18.914Z,49.00
2018-11-25T06:53:47.110Z,46.13
2018-11-25T06:56:15.568Z,47.95
2018-11-25T06:58:43.821Z,45.78
2018-11-25T07:01:12.150Z,41.63
2018-11-25T07:03:40.549Z,43.70
2018-11-25T07:06:08.881Z,47.65
2018-11-25T07:08:37.217Z,44.05
2018-11-25T07:11:05.725Z,44.85
2018-11-25T07:13:34.004Z,40.73
2018-11-25T07:16:02.331Z,43.98
2018-11-25T07:18:30.885Z,43.78
2018-11-25T07:20:59.458Z,45.50
2018-11-25T07:23:27.842Z,47.08
2018-11-25T07:25:56.745Z,45.17
2018-11-25T07:28:25.042Z,46.25
2018-11-25T07:30:53.389Z,47.93
2018-11-25T07:33:21.742Z,45.05
2018-11-25T07:35:50.090Z,45.58
2018-11-25T07:38:18.323Z,48.70
2018-11-25T07:40:53.824Z,47.20
2018-11-25T07:46:28.454Z,47.70
2018-11-25T07:49:04.158Z,48.78
2018-11-25T07:51:38.418Z,48.02
2018-11-25T07:54:31.240Z,48.75
2018-11-25T08:00:02.610Z,48.48
2018-11-25T08:02:32.001Z,51.77
2018-11-25T08:05:00.437Z,50.65
2018-11-25T08:07:28.941Z,54.90
2018-11-25T08:09:57.467Z,54.15
2018-11-25T08:12:25.939Z,50.23
2018-11-25T08:14:54.364Z,50.15
2018-11-25T08:17:22.838Z,53.15
2018-11-25T08:19:51.313Z,52.25
2018-11-25T08:22:20.059Z,49.73
2018-11-25T08:24:48.524Z,51.70
2018-11-25T08:27:16.847Z,49.05
2018-11-25T08:29:45.178Z,54.05
2018-11-25T08:32:13.791Z,50.35
2018-11-25T08:34:46.729Z,51.88
2018-11-25T08:37:14.989Z,46.85
2018-11-25T08:39:43.599Z,53.85
2018-11-25T08:42:12.044Z,53.55
2018-11-25T08:44:40.995Z,54.05
2018-11-25T08:47:09.483Z,53.13
2018-11-25T08:49:37.706Z,54.93
2018-11-25T08:52:06.115Z,52.53
2018-11-25T08:54:35.094Z,55.20
2018-11-25T08:57:03.514Z,57.95
2018-11-25T09:02:10.758Z,56.58
2018-11-25T09:04:49.154Z,56.83
2018-11-25T09:07:17.735Z,57.27
2018-11-25T09:09:46.356Z,56.23
2018-11-25T09:12:14.933Z,55.75
2018-11-25T09:14:43.341Z,55.28
2018-11-25T09:17:11.869Z,52.67
2018-11-25T09:19:40.357Z,52.55
2018-11-25T09:22:09.762Z,55.52
2018-11-25T09:24:41.431Z,57.95
2018-11-25T09:27:10.850Z,53.08
2018-11-25T09:29:40.397Z,55.10
2018-11-25T09:32:08.757Z,54.42
2018-11-25T09:34:37.205Z,53.38
2018-11-25T09:37:11.254Z,56.37
2018-11-25T09:39:40.071Z,57.33
2018-11-25T09:42:09.468Z,59.83
2018-11-25T09:44:37.959Z,56.13
2018-11-25T09:47:06.396Z,55.08
2018-11-25T09:49:34.828Z,55.73
2018-11-25T09:52:03.622Z,57.55
2018-11-25T09:54:32.376Z,54.10
2018-11-25T09:57:00.780Z,52.00
2018-11-25T09:59:29.239Z,51.53
2018-11-25T10:01:57.558Z,50.70
2018-11-25T10:04:25.949Z,51.40
2018-11-25T10:06:54.117Z,51.42
2018-11-25T10:09:23.844Z,52.10
2018-11-25T10:11:52.007Z,51.18
2018-11-25T10:14:20.257Z,49.00
2018-11-25T10:16:48.453Z,49.95
2018-11-25T10:19:16.738Z,47.45
2018-11-25T10:21:45.221Z,46.85
2018-11-25T10:24:13.589Z,47.08
2018-11-25T10:26:41.812Z,44.98
2018-11-25T10:29:10.046Z,40.90
2018-11-25T10:31:38.224Z,44.40
2018-11-25T10:34:06.570Z,43.58
2018-11-25T10:36:35.149Z,43.25
2018-11-25T10:39:04.622Z,42.73
2018-11-25T10:41:32.934Z,43.48
2018-11-25T10:44:01.389Z,41.58
2018-11-25T10:46:29.688Z,41.60
2018-11-25T10:48:57.905Z,40.75
2018-11-25T10:51:26.321Z,42.08
2018-11-25T10:53:54.746Z,40.85
2018-11-25T10:56:23.041Z,41.58
2018-11-25T10:58:51.770Z,41.75
2018-11-25T11:01:25.523Z,39.08
2018-11-25T11:03:56.363Z,40.30
2018-11-25T11:06:30.698Z,37.93
2018-11-25T11:08:59.392Z,40.60
2018-11-25T11:11:28.403Z,36.73
2018-11-25T11:13:57.227Z,38.25
2018-11-25T11:16:25.890Z,37.38
2018-11-25T11:18:56.099Z,38.78
2018-11-25T11:21:26.629Z,37.55
2018-11-25T11:23:57.973Z,38.10
2018-11-25T11:26:27.186Z,38.60
2018-11-25T11:28:55.873Z,39.08
2018-11-25T11:31:24.370Z,41.70
2018-11-25T11:33:52.886Z,40.00
2018-11-25T11:36:21.230Z,42.98
2018-11-25T11:38:49.416Z,43.48
2018-11-25T11:41:17.769Z,42.43
2018-11-25T11:43:46.279Z,41.55
2018-11-25T11:46:14.803Z,42.98
2018-11-25T11:48:43.010Z,44.88
2018-11-25T11:51:11.576Z,42.85
2018-11-25T11:53:40.146Z,43.75
2018-11-25T11:56:08.680Z,40.88
2018-11-25T11:58:37.365Z,42.00
2018-11-25T12:01:06.680Z,45.00
2018-11-25T12:03:44.560Z,42.88
2018-11-25T12:09:17.142Z,43.65
2018-11-25T12:11:53.764Z,47.05
2018-11-25T12:22:18.773Z,46.53
2018-11-25T12:24:47.066Z,48.15
2018-11-25T12:27:15.354Z,50.40
2018-11-25T12:29:43.637Z,48.35
2018-11-25T12:32:11.934Z,53.52
2018-11-25T12:34:40.188Z,51.18
2018-11-25T12:37:08.398Z,52.05
2018-11-25T12:39:36.717Z,51.40
2018-11-25T12:42:05.078Z,52.80
2018-11-25T12:44:33.607Z,52.15
2018-11-25T12:47:02.021Z,51.53
2018-11-25T12:49:30.387Z,53.60
2018-11-25T12:51:58.750Z,54.00
2018-11-25T12:54:27.029Z,54.73
2018-11-25T12:56:55.392Z,51.77
2018-11-25T12:59:23.681Z,50.83
2018-11-25T13:01:51.941Z,50.60
2018-11-25T13:04:20.622Z,49.80
2018-11-25T13:06:48.888Z,49.63
2018-11-25T13:09:17.077Z,47.25
2018-11-25T13:11:52.138Z,53.00
2018-11-25T13:14:13.830Z,50.45
2018-11-25T13:16:42.246Z,51.98
2018-11-25T13:19:10.481Z,51.60
2018-11-25T13:21:38.869Z,48.92
2018-11-25T13:24:07.151Z,51.68
2018-11-25T13:26:35.786Z,49.75
2018-11-25T13:29:04.347Z,48.23
2018-11-25T13:31:32.933Z,48.20
2018-11-25T13:34:01.362Z,50.08
2018-11-25T13:36:29.696Z,44.70
2018-11-25T13:38:58.171Z,45.75
2018-11-25T13:41:26.381Z,44.65
2018-11-25T13:43:54.679Z,45.60
2018-11-25T13:46:22.902Z,45.73
2018-11-25T13:48:51.520Z,44.70
2018-11-25T13:51:20.191Z,44.27
2018-11-25T13:53:48.846Z,42.70
2018-11-25T13:56:17.648Z,44.73
2018-11-25T13:58:46.072Z,43.60
2018-11-25T14:01:14.715Z,42.73
2018-11-25T14:03:43.698Z,43.80
2018-11-25T14:06:14.751Z,44.85
2018-11-25T14:08:44.826Z,42.03
2018-11-25T14:11:14.418Z,42.23
2018-11-25T14:13:43.207Z,41.35
2018-11-25T14:16:13.564Z,41.10
2018-11-25T14:18:41.884Z,40.60
2018-11-25T14:21:10.421Z,41.70
2018-11-25T14:23:38.944Z,42.30
2018-11-25T14:26:18.720Z,43.42
2018-11-25T14:28:47.402Z,39.58
2018-11-25T14:31:15.722Z,40.00
2018-11-25T14:33:45.241Z,41.48
2018-11-25T14:36:13.813Z,41.80
2018-11-25T14:38:42.108Z,42.23
2018-11-25T14:41:10.420Z,44.20
2018-11-25T14:43:38.723Z,40.90
2018-11-25T14:46:07.041Z,41.48
2018-11-25T14:48:35.329Z,44.08
2018-11-25T14:51:04.434Z,38.30
2018-11-25T14:53:34.038Z,40.43
2018-11-25T14:56:02.486Z,38.92
2018-11-25T14:58:30.810Z,40.65
2018-11-25T15:00:59.210Z,38.80
2018-11-25T15:03:27.591Z,41.60
2018-11-25T15:05:56.076Z,41.30
2018-11-25T15:08:25.842Z,40.40
2018-11-25T15:10:54.263Z,41.02
2018-11-25T15:13:27.759Z,40.75
2018-11-25T15:15:57.053Z,42.95
2018-11-25T15:18:25.370Z,41.25
2018-11-25T15:20:53.657Z,43.28
2018-11-25T15:23:22.023Z,41.10
2018-11-25T15:25:52.026Z,43.85
2018-11-25T15:28:20.342Z,40.65
2018-11-25T15:30:48.923Z,42.62
2018-11-25T15:33:17.201Z,40.55
2018-11-25T15:35:45.419Z,38.23
2018-11-25T15:38:13.612Z,40.40
2018-11-25T15:40:42.391Z,43.60
2018-11-25T15:43:12.396Z,43.08
2018-11-25T15:45:40.680Z,46.13
2018-11-25T15:48:14.667Z,43.50
2018-11-25T15:50:43.145Z,43.20
2018-11-25T15:53:11.831Z,40.25
2018-11-25T15:55:40.905Z,45.55
2018-11-25T15:58:09.381Z,44.00
2018-11-25T16:00:37.757Z,46.70
2018-11-25T16:03:08.243Z,46.33
2018-11-25T16:05:37.069Z,43.63
2018-11-25T16:08:05.583Z,46.35
2018-11-25T16:10:35.065Z,42.17
2018-11-25T16:13:03.372Z,44.40
2018-11-25T16:15:31.620Z,49.45
2018-11-25T16:17:59.922Z,45.90
2018-11-25T16:20:28.485Z,41.30
2018-11-25T16:23:00.884Z,45.98
2018-11-25T16:25:35.645Z,43.58
2018-11-25T16:28:40.560Z,44.50
2018-11-25T16:31:08.877Z,40.28
2018-11-25T16:33:37.214Z,44.58
2018-11-25T16:36:05.606Z,43.20
2018-11-25T16:38:33.838Z,41.60
2018-11-25T16:41:02.166Z,42.17
2018-11-25T16:43:30.478Z,42.00
2018-11-25T16:45:58.855Z,41.60
2018-11-25T16:48:27.166Z,43.45
2018-11-25T16:50:55.472Z,43.68
2018-11-25T16:53:23.769Z,41.75
2018-11-25T16:55:52.146Z,41.42
2018-11-25T16:58:20.386Z,39.63
2018-11-25T17:00:48.686Z,42.67
2018-11-25T17:03:17.033Z,40.90
2018-11-25T17:05:47.054Z,43.30
2018-11-25T17:08:24.464Z,41.65
2018-11-25T17:10:52.710Z,42.33
2018-11-25T17:13:20.902Z,44.63
2018-11-25T17:15:49.183Z,46.10
2018-11-25T17:18:17.292Z,45.43
2018-11-25T17:20:45.812Z,43.13
2018-11-25T17:23:14.738Z,42.38
2018-11-25T17:25:44.006Z,43.30
2018-11-25T17:28:12.456Z,41.05
2018-11-25T17:30:41.178Z,43.10
2018-11-25T17:33:19.382Z,39.50
2018-11-25T17:35:48.131Z,38.35
2018-11-25T17:38:16.438Z,40.12
2018-11-25T17:40:44.826Z,40.43
2018-11-25T17:43:15.198Z,37.98
2018-11-25T17:45:43.584Z,40.10
2018-11-25T17:48:12.032Z,35.15
2018-11-25T17:50:40.648Z,38.02
2018-11-25T17:53:09.970Z,39.30
2018-11-25T17:55:38.584Z,39.27
2018-11-25T17:58:07.024Z,36.53
2018-11-25T18:00:45.371Z,35.28
2018-11-25T18:03:16.656Z,36.70
2018-11-25T18:05:45.632Z,34.73
2018-11-25T18:08:18.818Z,36.75
2018-11-25T18:10:47.230Z,38.25
2018-11-25T18:13:16.733Z,37.03
2018-11-25T18:15:45.467Z,39.48
2018-11-25T18:18:17.158Z,38.28
2018-11-25T18:20:49.310Z,38.53
2018-11-25T18:23:18.790Z,36.80
2018-11-25T18:25:48.637Z,39.13
2018-11-25T18:28:21.883Z,36.00
2018-11-25T18:30:58.992Z,38.08
2018-11-25T18:37:00.697Z,40.78
2018-11-25T18:39:36.358Z,37.42
2018-11-25T18:42:21.067Z,38.83
2018-11-25T18:44:50.283Z,35.88
2018-11-25T18:47:23.998Z,35.85
2018-11-25T18:49:54.047Z,40.05
2018-11-25T18:52:35.230Z,38.25
2018-11-25T18:55:02.809Z,36.15
2018-11-25T18:57:31.666Z,37.53
2018-11-25T19:00:02.203Z,36.90
2018-11-25T19:02:42.690Z,34.45
2018-11-25T19:05:11.656Z,35.17
2018-11-25T19:07:40.826Z,36.00
2018-11-25T19:10:14.641Z,36.30
2018-11-25T19:15:32.258Z,32.83
2018-11-25T19:18:00.613Z,29.67
2018-11-25T19:20:29.863Z,32.45
2018-11-25T19:22:59.610Z,34.92
2018-11-25T19:25:28.696Z,30.70
2018-11-25T19:27:57.755Z,31.52
2018-11-25T19:30:31.566Z,30.77
2018-11-25T19:33:01.938Z,31.95
2018-11-25T19:35:30.541Z,30.00
2018-11-25T19:37:59.162Z,27.52
2018-11-25T19:40:27.785Z,28.47
2018-11-25T19:42:56.473Z,29.52
2018-11-25T19:45:25.897Z,30.60
2018-11-25T19:47:54.938Z,31.95
2018-11-25T19:50:29.842Z,29.72
2018-11-25T19:52:58.539Z,30.82
2018-11-25T19:55:27.320Z,30.50
2018-11-25T19:57:56.465Z,28.23
2018-11-25T20:00:26.986Z,29.90
2018-11-25T20:02:57.777Z,29.48
2018-11-25T20:05:26.747Z,26.93
2018-11-25T20:08:04.454Z,28.80
2018-11-25T20:10:33.344Z,26.23
2018-11-25T20:13:02.103Z,25.88
2018-11-25T20:15:32.761Z,25.37
2018-11-25T20:18:01.681Z,24.57
2018-11-25T20:20:30.328Z,23.90
2018-11-25T20:22:59.111Z,23.57
2018-11-25T20:25:27.939Z,23.00
2018-11-25T20:27:57.662Z,25.45
2018-11-25T20:30:31.330Z,24.70
2018-11-25T20:33:08.942Z,22.35
2018-11-25T20:35:37.243Z,22.67
2018-11-25T20:38:11.458Z,22.67
2018-11-25T20:40:41.083Z,24.35
2018-11-25T20:43:09.798Z,22.65
2018-11-25T20:45:43.819Z,23.87
2018-11-25T20:48:12.500Z,23.92
2018-11-25T20:50:40.972Z,23.30
2018-11-25T20:53:14.692Z,23.57
2018-11-25T20:55:43.102Z,23.10
2018-11-25T20:58:11.597Z,24.40
2018-11-25T21:00:41.413Z,24.15
2018-11-25T21:03:10.972Z,24.30
2018-11-25T21:05:39.250Z,24.82
2018-11-25T21:08:07.636Z,27.77
2018-11-25T21:10:36.576Z,24.65
2018-11-25T21:13:08.197Z,23.80
2018-11-25T21:15:36.858Z,25.12
2018-11-25T21:18:05.779Z,24.67
2018-11-25T21:20:34.209Z,26.02
2018-11-25T21:23:02.630Z,27.13
2018-11-25T21:25:31.792Z,26.25
2018-11-25T21:28:00.446Z,26.00
2018-11-25T21:30:28.723Z,28.47
2018-11-25T21:32:57.987Z,26.37
2018-11-25T21:35:26.614Z,25.92
2018-11-25T21:37:54.940Z,27.50
2018-11-25T21:40:24.079Z,26.25
2018-11-25T21:42:52.855Z,26.17
2018-11-25T21:45:21.542Z,25.72
2018-11-25T21:47:50.120Z,28.70
2018-11-25T21:50:21.864Z,27.60
2018-11-25T21:52:50.183Z,28.42
2018-11-25T21:55:18.788Z,26.93
2018-11-25T21:57:47.157Z,27.73
2018-11-25T22:00:17.228Z,27.22
2018-11-25T22:02:45.621Z,26.77
2018-11-25T22:05:14.231Z,27.25
2018-11-25T22:07:42.585Z,28.27
2018-11-25T22:10:12.512Z,28.35
2018-11-25T22:12:41.494Z,25.90
2018-11-25T22:15:11.909Z,27.10
2018-11-25T22:17:40.345Z,26.20
2018-11-25T22:20:10.478Z,23.55
2018-11-25T22:22:39.244Z,24.25
2018-11-25T22:25:09.846Z,26.37
2018-11-25T22:27:38.278Z,24.82
2018-11-25T22:30:14.415Z,22.98
2018-11-25T22:32:42.613Z,22.77
2018-11-25T22:35:12.671Z,21.30
2018-11-25T22:37:42.002Z,22.45
2018-11-25T22:40:10.371Z,23.07
2018-11-25T22:42:39.457Z,20.85
2018-11-25T22:45:09.360Z,20.10
2018-11-25T22:47:37.983Z,20.90
2018-11-25T22:50:09.831Z,20.00
2018-11-25T22:52:38.062Z,23.05
2018-11-25T22:55:08.968Z,21.75
2018-11-25T22:57:37.207Z,19.40
2018-11-25T23:00:13.878Z,22.50
2018-11-25T23:02:42.093Z,21.20
2018-11-25T23:05:21.532Z,21.10
2018-11-25T23:07:49.866Z,21.70
2018-11-25T23:10:18.075Z,21.10
2018-11-25T23:12:46.363Z,21.75
2018-11-25T23:15:14.571Z,22.20
2018-11-25T23:17:42.963Z,21.90
2018-11-25T23:20:11.173Z,22.17
2018-11-25T23:22:39.430Z,25.12
2018-11-25T23:25:07.691Z,22.70
2018-11-25T23:27:36.091Z,23.62
2018-11-25T23:30:04.413Z,22.62
2018-11-25T23:32:33.685Z,23.60
2018-11-25T23:35:02.045Z,25.97
2018-11-25T23:37:30.289Z,24.18
2018-11-25T23:39:58.521Z,23.70
2018-11-25T23:42:26.725Z,20.85
2018-11-25T23:44:54.953Z,23.20
2018-11-25T23:47:24.218Z,21.55
2018-11-25T23:49:52.567Z,20.27
2018-11-25T23:52:20.739Z,23.15
2018-11-25T23:54:48.981Z,22.55
2018-11-25T23:57:17.158Z,24.85
2018-11-25T23:59:45.565Z,23.00
